Central Sierra Snow Lab Weather observations

Data are for 10 minute period ending at time listed.
 Day   Time    Incoming  Reflected   Ave.   Ave.    Ave.    Vector  Max.    Ave.    Total    Snow   
  of    of      Solar     Solar      Air    Rel.    Wind    Wind    Wind   Baro.   Precip.   Depth  
Year   Day     Radiation Radiation   Temp.  Humid.  Speed   Dir.    Gust   Press.                   
2014   (PST)    Kw/m2     Kw/m2       F       %      mph     deg.    mph     mb.     in.      in.   
----------------------------------------------------------------------------------------------------
 108   10:20    0.817     999.000     53.2     50     2.2     172     5.4   789.40    8.86   -3.10  
 108   10:30    0.742     999.000     52.6     52     2.2     130     6.6   789.50    8.86   -3.10  
 108   10:40    0.581     999.000     53.9     48     2.0      79     5.0   789.40    8.86   -3.30  
 108   10:50    0.209     999.000     51.7     52     2.3     103     5.1   789.40    8.86   -3.00  
 108   11:00    0.763     999.000     52.9     52     1.9     355     4.3   789.40    8.86   -3.30  
 108   11:10    0.955     999.000     54.6     49     2.8      75     7.4   789.30    8.86   -3.70  
 108   11:20    0.613     999.000     53.9     49     2.7     112     7.1   789.30    8.87   -3.50  
 108   11:30    0.982     999.000     55.7     47     2.2     151     4.2   789.20    8.86   -3.70  
 108   11:40    0.939     999.000     56.2     44     2.4     215     5.7   789.10    8.85   -3.00  
 108   11:50    0.987     999.000     57.4     43     2.8     235     6.1   789.00    8.86   -3.00  
 108   12:00    0.401     999.000     55.6     44     2.0     225     4.6   789.00    8.85   -3.00  
 108   12:10    0.989     999.000     55.9     45     3.4     182     7.9   788.90    8.86   -2.60  
 108   12:20    1.008     999.000     57.4     41     2.9     149     6.9   788.80    8.87   -3.20  
 108   12:30    0.627     999.000     58.2     41     2.8     223     7.1   788.80    8.85   -3.00  
 108   12:40    0.243     999.000     55.8     43     3.1     272     8.2   788.80    8.86   -2.90  
 108   12:50    0.427     999.000     54.6     46     3.2     285     7.0   788.80    8.86   -2.80  
 108   13:00    0.811     999.000     56.4     43     3.1     299     7.1   788.70    8.85   -3.20  
 108   13:10    0.594     999.000     56.4     42     2.9     248     5.7   788.70    8.86   -3.10  
 108   13:20    0.344     999.000     55.6     44     3.0     240     7.9   788.80    8.86   -2.80  
 108   13:30    0.567     999.000     55.3     45     3.3     208     9.4   788.80    8.86   -3.20  
 108   13:40    0.632     999.000     56.2     44     3.7     215     9.0   788.70    8.86   -3.10  
 108   13:50    0.622     999.000     56.4     44     2.6     227     6.6   788.70    8.85   -3.10  
 108   14:00    0.478     999.000     56.7     45     2.6     258     8.8   788.60    8.86   -3.50  
 108   14:10    0.609     999.000     56.9     46     3.0     222     8.6   788.60    8.86   -3.50  
 108   14:20    0.353     999.000     55.8     48     2.9     239     8.9   788.50    8.86   -3.50  
 108   14:30    0.738     999.000     56.6     47     2.3     233     6.7   788.40    8.86   -3.60  
 108   14:40    0.518     999.000     56.9     49     4.1     245     8.8   788.40    8.86   -3.40  
 108   14:50    0.148     999.000     53.6     61     4.5     254    12.5   788.50    8.86   -3.30  
 108   15:00    0.121     999.000     51.9     65     2.7     262     9.0   788.50    8.86   -3.20  
 108   15:10    0.126     999.000     50.3     69     3.1     265     9.5   788.60    8.84   -3.00  
 108   15:20    0.135     999.000     49.2     72     3.5     227    11.2   788.70    8.84   -3.00  
 108   15:30    0.141     999.000     48.6     74     3.1     215     8.6   788.70    8.86   -2.60  
 108   15:40    0.076     999.000     47.6     72     1.9     195     7.4   788.80    8.86   -2.80  
 108   15:50    0.065     999.000     47.1     77     2.0     308     7.7   789.00    8.86   -3.10  
 108   16:00    0.053     999.000     46.3     81     2.6     262     5.4   789.10    8.87   -2.70  
 108   16:10    0.042     999.000     45.3     86     1.4     258     4.6   789.30    8.87   -2.20  
 108   16:20    0.059     999.000     45.0     89     1.5     356     4.3   789.30    8.89   -0.90  
 108   16:30    0.239     999.000     45.2     91     2.2      39     4.0   789.10    8.89   -2.20  
 108   16:40    0.372     999.000     47.9     87     1.6      40     3.5   788.90    8.89   -2.40  
 108   16:50    0.250     999.000     49.5     83     0.6     254     1.8   789.00    8.89   -3.20  
 108   17:00    0.190     999.000     49.3     80     1.1     205     2.1   788.90    8.89   -2.90  
 108   17:10    0.086     999.000     48.5     83     0.3     217     2.5   788.90    8.90   -2.90  
 108   17:20    0.081     999.000     48.2     81     0.0       0     0.0   788.90    8.89   -2.50  
 108   17:30    0.061     999.000     47.7     82     0.5     143     2.2   788.90    8.89   -2.80  
 108   17:40    0.050     999.000     47.4     86     0.3     102     2.0   789.00    8.89   -3.60  
 108   17:50    0.082     999.000     47.9     84     0.3     334     2.3   789.00    8.88   -3.60  
 108   18:00    0.061     999.000     48.6     82     0.5     257     2.0   789.00    8.89   -3.30  
 108   18:10    0.050     999.000     48.6     83     0.7     222     3.5   789.00    8.89   -3.20  
 108   18:20    0.026     999.000     47.4     86     0.6     235     2.0   789.00    8.89   -3.70  
 108   18:30    0.012     999.000     46.7     88     0.6     291     2.5   789.10    8.89   -4.20  
 108   18:40    0.004     999.000     45.8     89     0.9      57     1.8   789.20    8.89   -3.70  
 108   18:50    0.002     999.000     44.6     91     1.5      45     2.4   789.30    8.89   -4.10  
 108   19:00    0.001     999.000     43.0     91     1.9      22     3.2   789.40    8.89   -4.60  
 108   19:10    0.000     999.000     41.8     92     2.2      24     3.9   789.70    8.90   -4.80  
 108   19:20    0.000     999.000     40.9     96     2.5      26     3.3   789.80    8.88   -4.50  
 108   19:30    0.000     999.000     40.2    100     2.4      29     3.3   789.80    8.89   -4.70  
 108   19:40    0.000     999.000     39.8    100     1.9      32     3.6   789.90    8.89   -4.50  
 108   19:50    0.000     999.000     39.5    100     2.3      24     3.3   790.00    8.89   -5.20  
 108   20:00    0.000     999.000     39.1    100     1.9      29     3.0   790.10    8.88   -5.40  
 108   20:10    0.000     999.000     38.6    102     1.8      29     3.0   790.10    8.89   -5.10  
 108   20:20    0.000     999.000     38.2    108     1.8      28     3.2   790.20    8.89   -5.30  
 108   20:30    0.000     999.000     37.9    109     2.4      24     3.4   790.20    8.89   -4.90  
 108   20:40    0.000     999.000     37.7    110     2.3      27     3.7   790.20    8.89   -4.80  
 108   20:50    0.000     999.000     37.5    110     3.2      25     4.9   790.30    8.89   -4.80  
 108   21:00    0.000     999.000     37.4    110     3.0      28     4.3   790.30    8.89   -4.60  
 108   21:10    0.000     999.000     37.5    110     3.3      24     3.7   790.40    8.89   -5.20  
 108   21:20    0.000     999.000     37.5    111     2.9      23     3.5   790.30    8.89   -5.50  
 108   21:30    0.000     999.000     37.2    111     2.4      24     3.3   790.20    8.89   -4.70  
 108   21:40    0.000     999.000     36.9    111     3.0      26     3.6   790.30    8.89   -4.90  
 108   21:50    0.000     999.000     36.7    111     3.0      22     3.4   790.30    8.89   -4.70  
 108   22:00    0.000     999.000     36.6    112     1.1      17     3.0   790.30    8.89   -5.00  
 108   22:10    0.000     999.000     36.4    111     0.6      28     2.8   790.40    8.89   -4.90  
 108   22:20    0.000     999.000     36.0    112     2.2      26     2.9   790.40    8.89   -4.70  
 108   22:30    0.000     999.000     35.7    112     2.7      29     3.2   790.40    8.89   -4.80  
 108   22:40    0.000     999.000     35.5    112     1.4      32     2.9   790.40    8.89   -4.80  
 108   22:50    0.000     999.000     35.3    112     1.0      40     1.9   790.30    8.90   -4.90  
 108   23:00    0.000     999.000     35.1    112     2.6      32     3.6   790.20    8.90   -4.80  
 108   23:10    0.000     999.000     35.0    113     3.1      28     4.2   790.30    8.89   -4.80  
 108   23:20    0.000     999.000     34.9    113     3.3      30     4.2   790.30    8.89   -4.70  
 108   23:30    0.000     999.000     34.7    113     3.1      28     4.0   790.20    8.90   -4.40  
 108   23:40    0.000     999.000     34.5    113     1.0      26     3.1   790.30    8.89   -4.40  
 108   23:50    0.000     999.000     34.3    113     2.2      28     3.4   790.30    8.90   -4.30  
 109    0:00    0.000     999.000     34.2    113     3.0      28     6.2   790.20    8.90   -4.30  
 109    0:10    0.000     999.000     34.2    114     1.7      36     4.4   790.20    8.89   -4.20  
 109    0:20    0.000     999.000     34.1    114     3.2      29     4.0   790.00    8.90   -4.40  
 109    0:30    0.000     999.000     34.0    114     1.7      30     3.8   790.10    8.89   -4.30  
 109    0:40    0.000     999.000     34.0    114     3.6      24     4.2   790.20    8.89   -4.60  
 109    0:50    0.000     999.000     33.9    114     3.2      24     4.0   790.10    8.89   -4.30  
 109    1:00    0.000     999.000     33.8    114     1.1      34     3.7   790.00    8.90   -4.70  
 109    1:10    0.000     999.000     33.7    114     1.2      29     2.2   790.00    8.89   -4.50  
 109    1:20    0.000     999.000     33.6    114     1.6      30     3.3   790.00    8.89   -4.80  
 109    1:30    0.000     999.000     33.6    114     2.4      28     3.3   789.90    8.89   -4.90  
 109    1:40    0.000     999.000     33.4    114     2.3      29     3.2   789.90    8.89   -4.60  
 109    1:50    0.000     999.000     33.3    114     2.8      27     3.8   789.90    8.89   -4.50  
 109    2:00    0.000     999.000     33.2    114     2.8      28     3.6   789.90    8.89   -4.40  
 109    2:10    0.000     999.000     33.1    114     2.0      29     3.1   789.90    8.90   -4.50  
 109    2:20    0.000     999.000     33.0    115     2.3      31     4.2   789.90    8.89   -4.50  
 109    2:30    0.000     999.000     32.9    114     2.8      30     4.1   789.90    8.89   -4.50  
 109    2:40    0.000     999.000     32.8    114     2.5      28     3.8   789.90    8.90   -4.60  
 109    2:50    0.000     999.000     32.6    114     3.4      27     3.8   789.90    8.89   -4.60  
 109    3:00    0.000     999.000     32.4    114     3.3      22     4.0   789.90    8.90   -5.30  
 109    3:10    0.000     999.000     32.3    114     3.3      22     3.7   790.10    8.90   -5.60  
 109    3:20    0.000     999.000     32.3    114     3.7      22     4.1   790.10    8.89   -5.00  
 109    3:30    0.000     999.000     32.4    114     3.8      22     4.2   790.00    8.90   -4.90  
 109    3:40    0.000     999.000     32.4    114     3.6      23     4.1   790.00    8.90   -5.40  
 109    3:50    0.000     999.000     32.5    114     3.7      23     4.1   790.10    8.90   -5.40  
 109    4:00    0.000     999.000     32.7    114     3.6      24     4.0   790.00    8.90   -5.70  
 109    4:10    0.000     999.000     32.8    114     3.6      23     4.0   790.00    8.89   -6.90  
 109    4:20    0.000     999.000     32.8    114     3.3      22     4.0   789.90    8.90   -7.20  
 109    4:30    0.000     999.000     32.7    114     3.0      26     3.9   790.00    8.90   -7.50  
 109    4:40    0.000     999.000     32.7    114     2.9      27     4.0   790.10    8.89   -7.90  
 109    4:50    0.000     999.000     32.9    115     3.1      27     3.9   790.10    8.90   -8.10  
 109    5:00    0.000     999.000     33.0    115     3.5      24     4.2   790.20    8.90   -8.30  
 109    5:10    0.000     999.000     33.0    115     3.2      27     4.1   790.30    8.89   -8.20  
 109    5:20    0.001     999.000     33.1    115     3.4      24     4.4   790.30    8.90   -8.20  
 109    5:30    0.002     999.000     33.3    115     3.5      26     4.3   790.40    8.89   -8.30  
 109    5:40    0.006     999.000     33.3    115     3.1      28     4.0   790.50    8.89   -8.20  
 109    5:50    0.009     999.000     33.6    115     2.6      29     4.1   790.60    8.90   -8.40  
 109    6:00    0.011     999.000     33.7    115     3.1      26     3.9   790.70    8.90   -8.40  
 109    6:10    0.015     999.000     33.6    115     3.3      23     4.0   790.80    8.89   -8.30  
 109    6:20    0.019     999.000     33.9    115     3.4      25     3.9   790.90    8.90   -8.20  
 109    6:30    0.023     999.000     34.4    115     2.5      33     4.1   791.00    8.90   -8.20  
 109    6:40    0.028     999.000     35.2    115     2.1      34     3.0   791.10    8.90   -8.10  
 109    6:50    0.032     999.000     36.1    116     1.9      30     3.2   791.10    8.90    1.10  
 109    7:00    0.040     999.000     37.5    118     1.2      71     1.7   791.20    8.89   25.80  
 109    7:10    0.233     999.000     38.9    120     0.5     114     2.1   791.30    8.89   10.00  
 109    7:20    0.283     999.000     40.6    121     0.8     165     3.0   791.30    8.90   11.90  
 109    7:30    0.320     999.000     41.9    105     1.6     193     5.7   791.30    8.89    4.70  
 109    7:40    0.352     999.000     42.8     86     1.7     183     5.4   791.50    8.90   -5.40  
 109    7:50    0.383     999.000     43.3     85     2.0     190     3.6   791.60    8.90   -4.60  
 109    8:00    0.412     999.000     44.1     80     2.0     227     6.8   791.60    8.88   -3.90  
 109    8:10    0.442     999.000     44.8     79     1.9     193     6.3   791.60    8.89   -4.10  
 109    8:20    0.474     999.000     45.4     72     2.5     202     5.9   791.40    8.89   -3.90  
 109    8:30    0.505     999.000     46.2     65     2.9     210     8.1   791.40    8.89   -3.30  
 109    8:40    0.533     999.000     46.6     61     2.1     224     4.3   791.50    8.89   -3.30  
 109    8:50    0.570     999.000     47.1     58     3.4     197    10.7   791.60    8.89   -3.10  
 109    9:00    0.499     999.000     47.5     54     2.8     213     8.0   791.70    8.89   -3.20  
 109    9:10    0.560     999.000     48.6     47     2.8     221     9.8   791.70    8.89   -2.70  
 109    9:20    0.635     999.000     49.2     46     2.6     219     5.1   791.90    8.90   -2.70  
 109    9:30    0.664     999.000     49.9     46     3.1     213     6.9   791.90    8.89   -2.40  
 109    9:40    0.690     999.000     50.7     46     2.8     218    10.8   791.80    8.88   -2.40  
 109    9:50    0.700     999.000     51.8     45     2.5     208     5.1   791.90    8.87   -2.50  
 109   10:00    0.738     999.000     52.2     44     3.3     223     9.3   791.90    8.89   -2.30  
 109   10:10    0.687     999.000     52.3     42     2.8     230     6.5   792.00    8.88   -2.30  

Return to Central Sierra Snow Lab graphs page.


Western Regional Climate Center,wrcc@dri.edu